Bookmark and Share
Track history (hours):
 

Toyomasa Maru

Last reported at 2014-Apr-15 11:33 UTC. Time now 2014-Apr-16 19:23 UTC.
Position N 35°00' E 139°33'.

Length 101 m; draft 4.4 m.

Type: Tanker. MMSI: 431300401.

NotesDate/timePositionNaut miles runAvg speedWind from/ knotsBaromVisibWave heightAir tempDewpointWater temp
2014-Apr-15 11:33N 35°00' E 139°33'1212.0
2014-Apr-15 10:33N 35°08' E 139°43'1110.9
2014-Apr-15 09:34N 35°19' E 139°43'1111.4
2014-Apr-15 08:34N 35°30' E 139°48'2 2.0
2014-Apr-15 07:33N 35°30' E 139°45'0 0.0
2014-Apr-15 06:33N 35°30' E 139°45'0 0.0
2014-Apr-15 05:33N 35°30' E 139°45'1 0.4
2014-Apr-15 03:34N 35°30' E 139°44'7 6.9
2014-Apr-15 02:34N 35°23' E 139°46'1111.3
2014-Apr-15 01:34N 35°12' E 139°47'1211.8
2014-Apr-15 00:33N 35°01' E 139°40'7 0.2
2014-Apr-13 13:33N 34°59' E 139°32'1413.7
2014-Apr-13 12:33N 35°09' E 139°44'1212.2
2014-Apr-13 11:33N 35°21' E 139°42'1313.0
2014-Apr-13 10:33N 35°30' E 139°53'9 7.1
2014-Apr-13 09:22N 35°32' E 140°03'0 0.0
2014-Apr-13 08:31N 35°32' E 140°03'0 0.0
2014-Apr-13 07:31N 35°32' E 140°03'0 0.0
2014-Apr-13 06:31N 35°32' E 140°03'0 0.0
2014-Apr-13 05:25N 35°32' E 140°03'0 0.0
2014-Apr-13 04:31N 35°32' E 140°03'6 6.2
2014-Apr-13 03:33N 35°30' E 139°57'2 1.8
2014-Apr-13 02:32N 35°29' E 139°55'4 4.5
2014-Apr-13 01:33N 35°27' E 139°50'1111.0
2014-Apr-13 00:33N 35°16' E 139°46'1212.2
2014-Apr-12 23:33N 35°04' E 139°45'1211.7
2014-Apr-12 22:33N 34°53' E 139°47'1110.9
2014-Apr-12 21:33N 34°53' E 140°00'1312.5
2014-Apr-12 20:33N 34°59' E 140°14'3511.8
2014-Apr-12 17:33N 35°24' E 140°45'1110.9
2014-Apr-12 16:32N 35°32' E 140°53'  
2014-Apr-07 22:33N 35°30' E 140°50'4413.6
2014-Apr-07 19:21N 34°59' E 140°13'2212.2
2014-Apr-07 17:30N 34°53' E 139°47'1111.3
2014-Apr-07 16:33N 35°04' E 139°43'1212.2
2014-Apr-07 15:33N 35°16' E 139°46'1010.4
2014-Apr-07 14:33N 35°26' E 139°45'1211.8
2014-Apr-07 13:33N 35°31' E 139°58'3 3.3
2014-Apr-07 12:33N 35°31' E 140°02'0 0.0
2014-Apr-07 11:33N 35°31' E 140°02'0 0.0
2014-Apr-07 10:33N 35°31' E 140°03'0 0.0
2014-Apr-07 09:33N 35°31' E 140°03'0 0.0
2014-Apr-07 08:33N 35°31' E 140°02'0 0.0
2014-Apr-07 07:33N 35°31' E 140°02'0 0.2
2014-Apr-07 06:33N 35°31' E 140°02'6 5.6
2014-Apr-07 05:31N 35°32' E 139°55'0 0.0
2014-Apr-07 04:22N 35°32' E 139°55'810.0
2014-Apr-07 03:34N 35°30' E 139°45'0 0.2
2014-Apr-07 02:18N 35°30' E 139°45'0 0.0
2014-Apr-06 23:18N 35°30' E 139°45'0 0.1
2014-Apr-06 22:33N 35°30' E 139°45'5 4.8
2014-Apr-06 21:33N 35°25' E 139°45'1 0.9
2014-Apr-06 20:33N 35°24' E 139°45'0 0.0
2014-Apr-06 19:30N 35°24' E 139°45'0 0.0
2014-Apr-06 18:30N 35°24' E 139°45'0 0.0
2014-Apr-06 17:33N 35°24' E 139°45'0 0.0
2014-Apr-06 16:33N 35°24' E 139°45'0 0.0
2014-Apr-06 15:33N 35°24' E 139°45'0 0.0
2014-Apr-06 14:33N 35°24' E 139°45'0 0.1
2014-Apr-06 13:33N 35°24' E 139°45'0 0.0
2014-Apr-06 12:30N 35°24' E 139°45'0 0.0
2014-Apr-06 11:33N 35°24' E 139°45'2 1.9
2014-Apr-06 10:34N 35°26' E 139°47'1111.0
2014-Apr-06 09:33N 35°29' E 139°60'1 1.4
2014-Apr-06 08:30N 35°28' E 140°01'0 0.0
2014-Apr-06 07:33N 35°28' E 140°01'0 0.0
2014-Apr-06 06:33N 35°28' E 140°01'0 0.0
2014-Apr-06 05:33N 35°28' E 140°01'0 0.0
2014-Apr-06 04:27N 35°28' E 140°01'0 0.0
2014-Apr-06 03:33N 35°28' E 140°01'0 0.0
2014-Apr-06 02:33N 35°28' E 140°01'6 6.4
2014-Apr-06 01:33N 35°30' E 139°54'1313.0
2014-Apr-06 00:33N 35°20' E 139°44'1212.4
2014-Apr-05 23:33N 35°07' E 139°46'1212.2
2014-Apr-05 22:34N 34°55' E 139°45'1211.5
2014-Apr-05 21:33N 34°53' E 139°59'1212.3
2014-Apr-05 20:33N 34°59' E 140°13'4112.9
2014-Apr-05 17:24N 35°27' E 140°48'  

Dump ship's entire track history

sailing weather and tide predictions

Toyomasa Maru — JJ3927 — position and weather